No particular awareness of the weather is required.    There are no Weather-warnings


Meteo18 Weather Cam more information Meteo18 Weather Cam


Thunder radar more information blitzortung!


Rain radar more information rain snow radar


Visit our other weather sites:

Template documentation
and downloads

And another site



Weather Underground History page Text

Daily Summary for July 19, 2017 Units:  English    Metric   Both
« Previous Day
Next Day »
Daily Weekly Monthly Yearly Custom
  High: Low: Average:
Temperature: 86.5 °F 67.3 °F 75.7 °F
Dew Point: 66.6 °F 56.1 °F 60.8 °F
Humidity: 87 % 41 % 61 %
Wind Speed: 15 mph 0 mph 3.3 mph
Wind Gust: 21 mph - -
Wind:- - SW
Pressure: 29.9 in 29.9 in -
Precipitation: 0.01 in    
Historical Graphs
 
 
Tabular Data for July 19, 2017
Time Temperature Dew Point Pressure Wind Wind Speed Wind Gust Humidity Rainfall Rate (Hourly)
00:02 75.7 °F 59.9 °F 29.9 in SSW 1 mph 2 mph 58 % 0 in
00:12 75.4 °F 60.1 °F 29.9 in SW 1 mph 2 mph 59 % 0 in
00:17 75.4 °F 60.1 °F 29.9 in SSW 1 mph 2 mph 59 % 0 in
00:22 75.4 °F 59.5 °F 29.9 in Calm   2 mph 58 % 0 in
00:27 75 °F 60.3 °F 29.9 in Calm   2 mph 60 % 0 in
00:32 74.7 °F 59.9 °F 29.9 in Calm   2 mph 60 % 0 in
00:42 74.7 °F 59.9 °F 29.9 in Calm   2 mph 60 % 0 in
00:47 74.7 °F 59.9 °F 29.9 in Calm   1 mph 60 % 0 in
00:52 74.5 °F 60.1 °F 29.9 in Calm   1 mph 61 % 0 in
00:57 73.8 °F 59.9 °F 29.9 in Calm   1 mph 62 % 0 in
01:02 73.2 °F 59.9 °F 29.9 in Calm   1 mph 63 % 0 in
01:07 73.6 °F 60.3 °F 29.9 in Calm     63 % 0 in
01:12 73.4 °F 60.1 °F 29.9 in Calm   1 mph 63 % 0 in
01:17 73 °F 60.6 °F 29.9 in Calm   1 mph 65 % 0 in
01:22 72.1 °F 60.1 °F 29.9 in WSW 3 mph 3 mph 66 % 0 in
01:27 73 °F 61 °F 29.9 in SW 7 mph 7 mph 66 % 0 in
01:32 74.7 °F 61.2 °F 29.9 in SW 4 mph 6 mph 63 % 0 in
01:37 75.6 °F 61.2 °F 29.9 in WSW 4 mph 7 mph 61 % 0 in
01:42 76.1 °F 61.2 °F 29.9 in SW 4 mph 7 mph 60 % 0 in
01:47 75.9 °F 61 °F 29.9 in SSW 4 mph 7 mph 60 % 0 in
01:52 75.7 °F 61.3 °F 29.9 in SW 3 mph 7 mph 61 % 0 in
01:57 75.7 °F 60.8 °F 29.9 in SSW 4 mph 10 mph 60 % 0 in
02:02 75.2 °F 61.3 °F 29.9 in South 1 mph 10 mph 62 % 0 in
02:12 74.1 °F 61.2 °F 29.9 in SE 1 mph 5 mph 64 % 0 in
02:17 73.8 °F 61.3 °F 29.9 in Calm   3 mph 65 % 0 in
02:22 73.2 °F 60.8 °F 29.9 in ESE 1 mph 3 mph 65 % 0 in
02:27 73 °F 60.6 °F 29.9 in Calm   3 mph 65 % 0 in
02:32 72.9 °F 60.4 °F 29.9 in South 2 mph 3 mph 65 % 0 in
02:37 73.2 °F 60.3 °F 29.9 in Calm   4 mph 64 % 0 in
02:42 73.2 °F 60.3 °F 29.9 in SSE 1 mph 4 mph 64 % 0 in
02:47 73 °F 60.1 °F 29.9 in Calm   4 mph 64 % 0 in
02:52 72.7 °F 59.7 °F 29.9 in SSW 1 mph 4 mph 64 % 0 in
02:57 72.7 °F 59.7 °F 29.9 in South 4 mph 4 mph 64 % 0 in
03:02 72.7 °F 59.4 °F 29.9 in SSW 3 mph 4 mph 63 % 0 in
03:12 71.8 °F 59 °F 29.9 in SSW 2 mph 5 mph 64 % 0 in
03:17 71.4 °F 59 °F 29.9 in SSW 1 mph 5 mph 65 % 0 in
03:22 71.1 °F 59.2 °F 29.9 in South 2 mph 4 mph 66 % 0 in
03:27 70.9 °F 59 °F 29.9 in South 2 mph 4 mph 66 % 0 in
03:32 70.9 °F 58.5 °F 29.9 in SSW 1 mph 4 mph 65 % 0 in
03:37 70.5 °F 58.6 °F 29.9 in SW 2 mph 3 mph 66 % 0 in
03:42 70.5 °F 58.1 °F 29.9 in SW 3 mph 3 mph 65 % 0 in
03:47 70.7 °F 58.3 °F 29.9 in SSW 1 mph 4 mph 65 % 0 in
03:52 70.9 °F 58.1 °F 29.9 in SSW 1 mph 4 mph 64 % 0 in
03:57 71.1 °F 58.3 °F 29.9 in SSE 1 mph 4 mph 64 % 0 in
04:02 70.7 °F 58.3 °F 29.9 in SSW 1 mph 4 mph 65 % 0 in
04:07 70.5 °F 58.1 °F 29.9 in Calm   2 mph 65 % 0 in
04:12 70.5 °F 58.1 °F 29.9 in SSW 1 mph 2 mph 65 % 0 in
04:17 70.5 °F 58.1 °F 29.9 in Calm   2 mph 65 % 0 in
04:22 70.5 °F 58.1 °F 29.9 in Calm   2 mph 65 % 0 in
04:27 70.3 °F 58.1 °F 29.9 in Calm   2 mph 65 % 0 in
04:32 70.3 °F 58.1 °F 29.9 in Calm   2 mph 65 % 0 in
04:37 70.2 °F 57.9 °F 29.9 in Calm   2 mph 65 % 0 in
04:42 70.2 °F 58.3 °F 29.9 in Calm   2 mph 66 % 0 in
04:47 70.2 °F 57.9 °F 29.9 in SE 1 mph   65 % 0 in
04:52 70 °F 57.7 °F 29.9 in Calm     65 % 0 in
05:02 69.4 °F 57.6 °F 29.9 in Calm   2 mph 66 % 0 in
05:12 69.3 °F 57.9 °F 29.9 in Calm   2 mph 67 % 0 in
05:17 69.1 °F 57.7 °F 29.9 in Calm     67 % 0 in
05:22 68.9 °F 57.6 °F 29.9 in Calm     67 % 0 in
05:32 68.5 °F 57.6 °F 29.9 in Calm     68 % 0 in
05:37 68.4 °F 57.7 °F 29.9 in Calm     69 % 0 in
05:42 68.2 °F 57.6 °F 29.9 in Calm     69 % 0 in
05:52 67.3 °F 57.9 °F 29.9 in SSW 2 mph   72 % 0 in
05:57 67.5 °F 57.4 °F 29.9 in SW 3 mph 3 mph 70 % 0 in
06:02 68 °F 57.4 °F 29.9 in SSW 2 mph 3 mph 69 % 0 in
06:12 68.7 °F 57.7 °F 29.9 in SSW 3 mph 5 mph 68 % 0 in
06:17 68.5 °F 57.6 °F 29.9 in Calm   6 mph 68 % 0 in
06:22 68.7 °F 57.7 °F 29.9 in Calm   6 mph 68 % 0 in
06:27 68.5 °F 57.9 °F 29.9 in South 1 mph 6 mph 69 % 0 in
06:32 68.5 °F 57.9 °F 29.9 in SSW 1 mph 6 mph 69 % 0 in
06:37 68.5 °F 57.9 °F 29.9 in Calm   4 mph 69 % 0 in
06:42 68.5 °F 57.9 °F 29.9 in WSW 1 mph 4 mph 69 % 0 in
06:52 68.9 °F 57.6 °F 29.9 in SSE 2 mph 7 mph 67 % 0 in
06:57 68.9 °F 57.6 °F 29.9 in ESE 1 mph 7 mph 67 % 0 in
07:02 68.9 °F 57.6 °F 29.9 in ESE 3 mph 7 mph 67 % 0 in
07:12 69.3 °F 57.4 °F 29.9 in SSE 2 mph 6 mph 66 % 0 in
07:17 69.4 °F 57.2 °F 29.9 in South 1 mph 6 mph 65 % 0 in
07:22 69.6 °F 56.8 °F 29.9 in Calm   6 mph 64 % 0 in
07:32 70.2 °F 57 °F 29.9 in SSW 2 mph 5 mph 63 % 0 in
07:42 70.7 °F 57 °F 29.9 in WSW 1 mph 7 mph 62 % 0 in
07:47 71.1 °F 56.8 °F 29.9 in SW 5 mph 7 mph 61 % 0 in
07:52 71.2 °F 56.1 °F 29.9 in SW 5 mph 7 mph 59 % 0 in
07:57 71.2 °F 57 °F 29.9 in SW 4 mph 8 mph 61 % 0 in
08:02 71.1 °F 56.8 °F 29.9 in SSE 2 mph 8 mph 61 % 0 in
08:12 71.2 °F 57.6 °F 29.9 in SSW 2 mph 8 mph 62 % 0 in
08:22 72 °F 57.4 °F 29.9 in SSW 2 mph 6 mph 60 % 0 in
08:32 73.6 °F 58.3 °F 29.9 in Calm   6 mph 59 % 0 in
08:37 74.7 °F 57.9 °F 29.9 in Calm   3 mph 56 % 0 in
08:42 75 °F 57.7 °F 29.9 in Calm   3 mph 55 % 0 in
08:52 75.7 °F 57.9 °F 29.9 in Calm   2 mph 54 % 0 in
09:02 76.3 °F 57.4 °F 29.9 in Calm   4 mph 52 % 0 in
09:12 77.7 °F 58.1 °F 29.9 in SSW 2 mph 5 mph 51 % 0 in
09:17 77.7 °F 58.6 °F 29.9 in ESE 2 mph 5 mph 52 % 0 in
09:22 78.1 °F 58.5 °F 29.9 in SE 3 mph 5 mph 51 % 0 in
09:27 78.8 °F 58.6 °F 29.9 in SSW 1 mph 6 mph 50 % 0 in
09:32 79.2 °F 58.3 °F 29.9 in South 2 mph 6 mph 49 % 0 in
09:42 79.3 °F 59 °F 29.9 in SSE 6 mph 6 mph 50 % 0 in
09:47 80.2 °F 58.1 °F 29.9 in East 3 mph 7 mph 47 % 0 in
09:52 81.3 °F 57.9 °F 29.9 in SW 4 mph 7 mph 45 % 0 in
09:57 81.7 °F 58.3 °F 29.9 in SW 7 mph 10 mph 45 % 0 in
10:02 81.7 °F 56.3 °F 29.9 in South 4 mph 10 mph 42 % 0 in
10:12 81.7 °F 57.6 °F 29.9 in South 3 mph 11 mph 44 % 0 in
10:17 81.7 °F 57.6 °F 29.9 in SSE 7 mph 13 mph 44 % 0 in
10:22 82 °F 56.7 °F 29.9 in SSW 15 mph 15 mph 42 % 0 in
10:32 82.6 °F 56.5 °F 29.9 in South 7 mph 16 mph 41 % 0 in
10:37 82.8 °F 56.7 °F 29.9 in SW 15 mph 16 mph 41 % 0 in
10:42 82.4 °F 56.3 °F 29.9 in SSW 10 mph 16 mph 41 % 0 in
10:47 82.6 °F 57.7 °F 29.9 in SW 11 mph 18 mph 43 % 0 in
10:52 81.9 °F 56.5 °F 29.9 in SSW 8 mph 18 mph 42 % 0 in
10:57 81.5 °F 56.8 °F 29.9 in SSW 8 mph 21 mph 43 % 0 in
11:02 81.3 °F 56.7 °F 29.9 in West 6 mph 21 mph 43 % 0 in
11:07 81.7 °F 57.6 °F 29.9 in WSW 11 mph 21 mph 44 % 0 in
11:17 80.8 °F 57.4 °F 29.9 in SW 10 mph 18 mph 45 % 0 in
11:22 80.2 °F 57.6 °F 29.9 in WSW 6 mph 18 mph 46 % 0 in
11:27 80.4 °F 57.7 °F 29.9 in SW 4 mph 18 mph 46 % 0 in
11:32 81 °F 57.6 °F 29.9 in SW 15 mph 18 mph 45 % 0 in
11:37 81.1 °F 58.5 °F 29.9 in SSE 5 mph 16 mph 46 % 0 in
11:42 80.8 °F 56.8 °F 29.9 in WSW 9 mph 16 mph 44 % 0 in
11:47 80.1 °F 57.4 °F 29.9 in SW 5 mph 20 mph 46 % 0 in
11:52 79.3 °F 57.9 °F 29.9 in SW 13 mph 20 mph 48 % 0 in
11:57 78.3 °F 59.2 °F 29.9 in West 6 mph 19 mph 52 % 0 in
12:02 77.4 °F 59.4 °F 29.9 in SW 8 mph 19 mph 54 % 0 in
12:12 76.8 °F 59.9 °F 29.9 in SW 4 mph 14 mph 56 % 0 in
12:17 76.6 °F 59.7 °F 29.9 in West 8 mph 12 mph 56 % 0 in
12:27 75.9 °F 61 °F 29.9 in WNW 4 mph 12 mph 60 % 0 in
12:32 75.7 °F 62.2 °F 29.9 in Calm   12 mph 63 % 0 in
12:37 75.9 °F 62.4 °F 29.9 in NNW 1 mph 9 mph 63 % 0 in
12:42 76.3 °F 63.1 °F 29.9 in NNW 3 mph 9 mph 64 % 0 in
12:47 76.5 °F 62.4 °F 29.9 in NNW 3 mph 5 mph 62 % 0 in
12:52 76.8 °F 62.4 °F 29.9 in WNW 3 mph 5 mph 61 % 0 in
13:02 77.5 °F 62.6 °F 29.9 in Calm   4 mph 60 % 0 in
13:07 77.9 °F 61.9 °F 29.9 in West 2 mph 5 mph 58 % 0 in
13:12 78.3 °F 62.8 °F 29.9 in Calm   5 mph 59 % 0 in
13:17 79.2 °F 62.1 °F 29.9 in WSW 2 mph 5 mph 56 % 0 in
13:22 79.5 °F 61.3 °F 29.9 in SW 2 mph 5 mph 54 % 0 in
13:32 79.5 °F 60.8 °F 29.9 in West 2 mph 5 mph 53 % 0 in
13:37 79.7 °F 61.5 °F 29.9 in SSW 3 mph 5 mph 54 % 0 in
13:42 79.9 °F 61.2 °F 29.9 in SW 5 mph 6 mph 53 % 0 in
13:47 80.1 °F 61.3 °F 29.9 in West 4 mph 6 mph 53 % 0 in
13:52 81 °F 62.2 °F 29.9 in SW 1 mph 6 mph 53 % 0 in
13:57 81.3 °F 61.5 °F 29.9 in WSW 2 mph 5 mph 51 % 0 in
14:02 81.7 °F 61.2 °F 29.9 in SSW 1 mph 5 mph 50 % 0 in
14:12 82.9 °F 61.2 °F 29.9 in SW 1 mph 6 mph 48 % 0 in
14:17 83.3 °F 61.5 °F 29.9 in Calm   2 mph 48 % 0 in
14:22 84 °F 61.7 °F 29.9 in Calm   2 mph 47 % 0 in
14:27 83.8 °F 62.1 °F 29.9 in Calm   2 mph 48 % 0 in
14:32 83.3 °F 62.1 °F 29.9 in SW 2 mph 2 mph 49 % 0 in
14:37 83.3 °F 62.8 °F 29.9 in WSW 1 mph 2 mph 50 % 0 in
14:42 83.3 °F 61.5 °F 29.9 in West 2 mph 4 mph 48 % 0 in
14:47 83.8 °F 62.1 °F 29.9 in Calm   4 mph 48 % 0 in
14:52 84 °F 61.7 °F 29.9 in SE 3 mph 4 mph 47 % 0 in
14:57 84.6 °F 61.5 °F 29.9 in SSE 2 mph 4 mph 46 % 0 in
15:02 84.9 °F 60.6 °F 29.9 in SW 2 mph 4 mph 44 % 0 in
15:07 85.3 °F 61.5 °F 29.9 in WSW 2 mph 4 mph 45 % 0 in
15:12 85.6 °F 61.2 °F 29.9 in SSW 2 mph 8 mph 44 % 0 in
15:17 85.6 °F 59.9 °F 29.9 in SW 6 mph 12 mph 42 % 0 in
15:22 85.3 °F 59.5 °F 29.9 in SW 6 mph 14 mph 42 % 0 in
15:32 85.6 °F 59.2 °F 29.9 in West 9 mph 14 mph 41 % 0 in
15:42 85.5 °F 59.7 °F 29.9 in SW 5 mph 11 mph 42 % 0 in
15:47 85.8 °F 60.1 °F 29.9 in SW 4 mph 11 mph 42 % 0 in
15:52 86.4 °F 60.6 °F 29.9 in WSW 5 mph 11 mph 42 % 0 in
16:02 86.5 °F 60.8 °F 29.9 in SSW 7 mph 11 mph 42 % 0 in
16:07 86.4 °F 61.2 °F 29.9 in SW 13 mph 13 mph 43 % 0 in
16:12 86 °F 61.5 °F 29.9 in SSW 6 mph 13 mph 44 % 0 in
16:17 85.8 °F 60.8 °F 29.9 in SSW 3 mph 13 mph 43 % 0 in
16:22 85.6 °F 61.2 °F 29.9 in SW 4 mph 13 mph 44 % 0 in
16:32 85.8 °F 60.1 °F 29.9 in West 11 mph 13 mph 42 % 0 in
16:42 85.6 °F 59.2 °F 29.9 in South 5 mph 14 mph 41 % 0 in
16:47 85.3 °F 59 °F 29.9 in WSW 10 mph 14 mph 41 % 0 in
16:52 84.6 °F 59 °F 29.9 in West 12 mph 16 mph 42 % 0 in
17:02 83.3 °F 58.5 °F 29.9 in WSW 15 mph 16 mph 43 % 0 in
17:12 81.7 °F 60.1 °F 29.9 in WSW 10 mph 16 mph 48 % 0 in
17:17 80.8 °F 61 °F 29.9 in SW 8 mph 16 mph 51 % 0 in
17:22 80.2 °F 61 °F 29.9 in SW 8 mph 14 mph 52 % 0 in
17:32 79.3 °F 61.7 °F 29.9 in West 4 mph 13 mph 55 % 0 in
17:37 79 °F 61.9 °F 29.9 in WSW 7 mph 13 mph 56 % 0 in
17:42 79 °F 61.9 °F 29.9 in SW 3 mph 11 mph 56 % 0 in
17:47 79 °F 61.9 °F 29.9 in WSW 8 mph 11 mph 56 % 0 in
17:52 78.8 °F 62.2 °F 29.9 in WSW 8 mph 10 mph 57 % 0 in
17:57 78.8 °F 62.2 °F 29.9 in SW 9 mph 11 mph 57 % 0 in
18:02 79 °F 63 °F 29.9 in West 5 mph 11 mph 58 % 0 in
18:07 79 °F 62.4 °F 29.9 in West 4 mph 13 mph 57 % 0 in
18:12 79 °F 63 °F 29.9 in West 2 mph 12 mph 58 % 0 in
18:17 79.2 °F 62.1 °F 29.9 in WSW 5 mph 12 mph 56 % 0 in
18:22 79 °F 62.4 °F 29.9 in SW 9 mph 12 mph 57 % 0 in
18:27 79 °F 62.4 °F 29.9 in SW 9 mph 12 mph 57 % 0 in
18:32 78.4 °F 62.4 °F 29.9 in South 5 mph 17 mph 58 % 0 in
18:42 77.2 °F 62.6 °F 29.9 in SSW 4 mph 18 mph 61 % 0 in
18:52 75.6 °F 64.2 °F 29.9 in WSW 9 mph 15 mph 68 % 0.01 in
18:57 74.7 °F 64.2 °F 29.9 in West 5 mph 15 mph 70 % 0.01 in
19:02 74.3 °F 64.8 °F 29.9 in WSW 2 mph 15 mph 72 % 0.01 in
19:07 73.9 °F 64.8 °F 29.9 in SW 3 mph 11 mph 73 % 0.01 in
19:12 73.9 °F 64.8 °F 29.9 in WSW 3 mph 10 mph 73 % 0.01 in
19:17 73.9 °F 64.8 °F 29.9 in SW 5 mph 10 mph 73 % 0.01 in
19:22 73.8 °F 64.6 °F 29.9 in SW 3 mph 10 mph 73 % 0.01 in
19:27 73.9 °F 64.4 °F 29.9 in West 7 mph 11 mph 72 % 0.01 in
19:32 74.1 °F 64.9 °F 29.9 in SW 7 mph 11 mph 73 % 0.01 in
19:42 74.3 °F 65.1 °F 29.9 in WSW 3 mph 10 mph 73 % 0.01 in
19:47 74.5 °F 65.3 °F 29.9 in SW 7 mph 7 mph 73 % 0 in
19:57 74.5 °F 65.3 °F 29.9 in SW 5 mph 10 mph 73 % 0 in
20:02 74.5 °F 65.7 °F 29.9 in SW 5 mph 10 mph 74 % 0 in
20:07 74.5 °F 65.7 °F 29.9 in SW 4 mph 10 mph 74 % 0 in
20:12 74.5 °F 65.7 °F 29.9 in SSW 3 mph 10 mph 74 % 0 in
20:17 74.7 °F 65.8 °F 29.9 in SW 7 mph 11 mph 74 % 0 in
20:22 74.7 °F 65.5 °F 29.9 in West 3 mph 11 mph 73 % 0 in
20:32 74.7 °F 65.8 °F 29.9 in SW 3 mph 11 mph 74 % 0 in
20:37 74.5 °F 66 °F 29.9 in WSW 4 mph 8 mph 75 % 0 in
20:42 74.5 °F 66 °F 29.9 in WSW 3 mph 8 mph 75 % 0 in
20:47 74.3 °F 66.2 °F 29.9 in SW 5 mph 8 mph 76 % 0 in
20:52 74.3 °F 66.2 °F 29.9 in SSW 5 mph 8 mph 76 % 0 in
20:57 74.3 °F 66.2 °F 29.9 in WSW 3 mph 8 mph 76 % 0 in
21:02 74.1 °F 66 °F 29.9 in SW 3 mph 8 mph 76 % 0 in
21:07 74.1 °F 66.4 °F 29.9 in SW 3 mph 8 mph 77 % 0 in
21:12 73.9 °F 66.6 °F 29.9 in SW 1 mph 8 mph 78 % 0 in
21:17 73.8 °F 66.4 °F 29.9 in WSW 3 mph 9 mph 78 % 0 in
21:22 73.2 °F 66.4 °F 29.9 in SW 2 mph 9 mph 79 % 0 in
21:27 72.9 °F 66.4 °F 29.9 in WSW 3 mph 9 mph 80 % 0 in
21:32 72.7 °F 66.2 °F 29.9 in West 1 mph 9 mph 80 % 0 in
21:42 72 °F 65.8 °F 29.9 in WNW 3 mph 6 mph 81 % 0 in
21:47 71.8 °F 65.7 °F 29.9 in WNW 5 mph 7 mph 81 % 0 in
21:52 71.8 °F 65.7 °F 29.9 in West 1 mph 7 mph 81 % 0 in
21:57 71.4 °F 65.7 °F 29.9 in WNW 2 mph 7 mph 82 % 0 in
22:02 71.2 °F 65.5 °F 29.9 in WSW 2 mph 7 mph 82 % 0 in
22:12 71.1 °F 65.7 °F 29.9 in WSW 1 mph 4 mph 83 % 0 in
22:17 70.9 °F 65.5 °F 29.9 in Calm   4 mph 83 % 0 in
22:22 70.7 °F 65.7 °F 29.9 in WSW 1 mph 4 mph 84 % 0 in
22:32 70.7 °F 65.7 °F 29.9 in Calm   3 mph 84 % 0 in
22:42 70.3 °F 65.3 °F 29.9 in SSW 2 mph 4 mph 84 % 0 in
22:52 69.8 °F 65.5 °F 29.9 in SW 2 mph 4 mph 86 % 0 in
22:57 69.8 °F 65.5 °F 29.9 in WSW 1 mph 4 mph 86 % 0 in
23:02 70.2 °F 65.8 °F 29.9 in WSW 2 mph 4 mph 86 % 0 in
23:07 70.5 °F 65.8 °F 29.9 in WSW 4 mph 5 mph 85 % 0 in
23:12 70.5 °F 65.8 °F 29.9 in WSW 5 mph 6 mph 85 % 0 in
23:17 70.5 °F 65.8 °F 29.9 in West 5 mph 6 mph 85 % 0 in
23:22 70.5 °F 65.8 °F 29.9 in SW 4 mph 7 mph 85 % 0 in
23:32 70.3 °F 65.7 °F 29.9 in West 2 mph 7 mph 85 % 0 in
23:42 69.6 °F 65.3 °F 29.9 in SSW 4 mph 6 mph 86 % 0 in
23:47 69.4 °F 65.5 °F 29.9 in WSW 2 mph 5 mph 87 % 0 in
23:52 69.4 °F 65.5 °F 29.9 in SSE 2 mph 7 mph 87 % 0 in
23:57 69.3 °F 65.3 °F 29.9 in SW 2 mph 7 mph 87 % 0 in
Meteo18
Compliments of Weather Underground - 4 mb

Script developed by  Jim McMurry - jmcmurry@mwt.net Adapted for the template by  Wim van der Kuil - Leuven-Template.eu

You find our weather info also at:

European Weather Network

Weather Underground

Equipment we use:

Weather-station
Davis Vue

Weather-program
Meteohub

Weather-server
Raspberry PI 2 B+

Provider
1 and 1

Davis Vue

Meteohub

Raspberry PI 2 B+

1 and 1